createdAt,value
2018-06-02T10:35:29.657Z,21.1
2018-06-02T10:36:29.872Z,21.1
2018-06-02T10:37:29.763Z,20.9
2018-06-02T10:38:29.650Z,21
2018-06-02T10:39:29.543Z,21
2018-06-02T10:40:29.431Z,21
2018-06-02T10:41:29.527Z,21
2018-06-02T10:42:30.410Z,21.1
2018-06-02T10:43:30.338Z,21.1
2018-06-02T10:44:30.320Z,21.1
2018-06-02T10:45:30.740Z,21.1
2018-06-02T10:46:30.644Z,21
2018-06-02T10:47:30.537Z,21
2018-06-02T10:48:30.408Z,21
2018-06-02T10:49:30.288Z,21
2018-06-02T10:50:30.187Z,21
2018-06-02T10:51:30.078Z,21.1
2018-06-02T10:52:29.956Z,21.2
2018-06-02T10:53:29.870Z,21.3
2018-06-02T10:54:29.969Z,21.4
2018-06-02T10:55:30.279Z,21.5
2018-06-02T10:56:30.199Z,21.5
2018-06-02T10:57:30.060Z,21.7
2018-06-02T10:58:29.937Z,21.9
2018-06-02T10:59:29.811Z,21.9
2018-06-02T11:00:29.697Z,21.9
2018-06-02T11:01:29.606Z,22.1
2018-06-02T11:02:29.482Z,22.1
2018-06-02T11:03:29.368Z,22.1
2018-06-02T11:04:29.282Z,22.2
2018-06-02T11:05:29.619Z,22.3
2018-06-02T11:06:29.529Z,21.9
2018-06-02T11:07:29.418Z,21.9
2018-06-02T11:08:29.283Z,22
2018-06-02T11:09:29.181Z,22.1
2018-06-02T11:10:29.065Z,22.1
2018-06-02T11:11:31.713Z,22.2
2018-06-02T11:12:31.597Z,22
2018-06-02T11:13:31.477Z,21.8
2018-06-02T11:14:31.383Z,21.7
2018-06-02T11:15:31.694Z,21.9
2018-06-02T11:16:31.581Z,21.9
2018-06-02T11:17:31.475Z,21.9
2018-06-02T11:18:31.362Z,22
2018-06-02T11:19:31.641Z,22.1
2018-06-02T11:20:31.799Z,22.3
2018-06-02T11:21:31.713Z,22.3
2018-06-02T11:22:32.600Z,22.3
2018-06-02T11:23:32.496Z,22.1
2018-06-02T11:24:32.587Z,22.1
2018-06-02T11:25:32.976Z,22.1
2018-06-02T11:26:32.857Z,22.1
2018-06-02T11:27:32.756Z,22
2018-06-02T11:28:32.638Z,22
2018-06-02T11:29:32.550Z,22
2018-06-02T11:30:32.438Z,22
2018-06-02T11:31:32.318Z,21.9
2018-06-02T11:32:32.208Z,22
2018-06-02T11:33:32.122Z,22.1
2018-06-02T11:34:35.432Z,22.1
2018-06-02T11:35:40.018Z,22.1
2018-06-02T11:36:39.901Z,22.2
2018-06-02T11:37:39.786Z,22.3
2018-06-02T11:38:39.686Z,22.3
2018-06-02T11:39:39.594Z,22.2
2018-06-02T11:40:42.508Z,22.3
2018-06-02T11:41:42.386Z,22.5
2018-06-02T11:42:42.261Z,22.5
2018-06-02T11:43:42.159Z,22.4
2018-06-02T11:44:42.066Z,22.3
2018-06-02T11:45:42.405Z,22.3
2018-06-02T11:46:42.338Z,22.4
2018-06-02T11:47:42.218Z,22.3
2018-06-02T11:48:42.336Z,22.3
2018-06-02T11:49:42.516Z,22.4
2018-06-02T11:50:43.043Z,22.3
2018-06-02T11:51:43.203Z,22.2
2018-06-02T11:52:43.105Z,22
2018-06-02T11:53:42.998Z,21.8
2018-06-02T11:54:42.930Z,21.8
2018-06-02T11:55:43.428Z,22
2018-06-02T11:56:43.382Z,22.2
2018-06-02T11:57:43.535Z,22.2
2018-06-02T11:58:43.429Z,22.3
2018-06-02T11:59:46.337Z,22.4
2018-06-02T12:00:46.634Z,22.4
2018-06-02T12:01:47.525Z,22.3
2018-06-02T12:02:47.456Z,22.2
2018-06-02T12:03:47.392Z,22.3
2018-06-02T12:04:47.309Z,22.3
2018-06-02T12:05:48.020Z,22.3
2018-06-02T12:06:48.024Z,22.4
2018-06-02T12:07:47.943Z,22.4
2018-06-02T12:08:47.866Z,22.5
2018-06-02T12:09:47.813Z,22.5
2018-06-02T12:10:47.711Z,22.5
2018-06-02T12:11:47.600Z,22.5
2018-06-02T12:12:47.476Z,22.5
2018-06-02T12:13:47.384Z,22.6
2018-06-02T12:14:47.340Z,22.6
2018-06-02T12:15:47.671Z,22.5
2018-06-02T12:16:47.569Z,22.4
2018-06-02T12:17:48.127Z,22.4
2018-06-02T12:18:48.071Z,22.5
2018-06-02T12:19:51.018Z,22.4
2018-06-02T12:20:51.461Z,22.4
2018-06-02T12:21:51.321Z,22.4
2018-06-02T12:22:51.209Z,22.2
2018-06-02T12:23:51.100Z,22.1
2018-06-02T12:24:50.997Z,22
2018-06-02T12:25:51.566Z,22.2
2018-06-02T12:26:51.444Z,22.2
2018-06-02T12:27:51.332Z,22.3
2018-06-02T12:28:51.234Z,22.4
2018-06-02T12:29:51.334Z,22.4
2018-06-02T12:30:52.283Z,22.2
2018-06-02T12:31:53.284Z,22.2
2018-06-02T12:32:54.195Z,22.3
2018-06-02T12:33:54.090Z,22.3
2018-06-02T12:34:53.992Z,22.3
2018-06-02T12:35:54.361Z,22.3
2018-06-02T12:36:54.248Z,22.5
2018-06-02T12:37:54.149Z,22.6
2018-06-02T12:38:54.441Z,22.7
2018-06-02T12:39:54.465Z,22.8
2018-06-02T12:40:54.358Z,22.8
2018-06-02T12:41:54.271Z,22.7
2018-06-02T12:42:54.400Z,22.6
2018-06-02T12:43:54.494Z,22.4
2018-06-02T12:44:54.398Z,22.5
2018-06-02T12:45:54.686Z,22.4
2018-06-02T12:46:54.588Z,22.5
2018-06-02T12:47:54.485Z,22.6
2018-06-02T12:48:54.374Z,22.6
2018-06-02T12:49:54.280Z,22.5
2018-06-02T12:50:54.166Z,22.4
2018-06-02T12:51:54.041Z,22.4
2018-06-02T12:52:53.925Z,22.5
2018-06-02T12:53:53.802Z,22.5
2018-06-02T12:54:53.685Z,22.5
2018-06-02T12:55:53.980Z,22.7
2018-06-02T12:56:53.875Z,22.8
2018-06-02T12:57:56.745Z,22.9
2018-06-02T12:58:56.622Z,22.8
2018-06-02T12:59:56.542Z,22.8
2018-06-02T13:00:56.517Z,22.6
2018-06-02T13:01:56.429Z,22.5
2018-06-02T13:02:56.327Z,22.6
2018-06-02T13:03:56.201Z,22.7
2018-06-02T13:04:56.078Z,22.7
2018-06-02T13:05:57.422Z,22.8
2018-06-02T13:06:57.332Z,22.8
2018-06-02T13:07:57.202Z,22.9
2018-06-02T13:08:57.088Z,23
2018-06-02T13:09:56.963Z,22.9
2018-06-02T13:10:57.090Z,23
2018-06-02T13:11:56.968Z,22.8
2018-06-02T13:12:56.881Z,22.8
2018-06-02T13:13:56.791Z,22.8
2018-06-02T13:14:56.677Z,22.9
2018-06-02T13:15:57.003Z,22.8
2018-06-02T13:16:56.907Z,22.9
2018-06-02T13:17:56.813Z,22.8
2018-06-02T13:18:56.748Z,22.7
2018-06-02T13:19:56.612Z,22.8
2018-06-02T13:20:57.158Z,22.7
2018-06-02T13:21:57.054Z,22.7
2018-06-02T13:22:56.957Z,22.7
2018-06-02T13:23:56.841Z,22.7
2018-06-02T13:24:56.726Z,22.7
2018-06-02T13:25:57.075Z,22.8
2018-06-02T13:26:57.191Z,22.8
2018-06-02T13:27:57.086Z,22.9
2018-06-02T13:28:56.975Z,22.9
2018-06-02T13:29:57.109Z,22.8
2018-06-02T13:30:56.980Z,22.8
2018-06-02T13:31:56.875Z,22.8
2018-06-02T13:32:57.044Z,22.8
2018-06-02T13:33:56.940Z,22.7
2018-06-02T13:34:56.825Z,22.7
2018-06-02T13:35:57.414Z,22.6
2018-06-02T13:36:57.306Z,22.5
2018-06-02T13:37:57.193Z,22.5
2018-06-02T13:38:57.125Z,22.4
2018-06-02T13:39:57.023Z,22.3
2018-06-02T13:40:56.884Z,22.3
2018-06-02T13:41:56.787Z,22.3
2018-06-02T13:42:56.720Z,22.3
2018-06-02T13:43:56.730Z,22.3
2018-06-02T13:44:56.602Z,22.3
2018-06-02T13:45:57.559Z,22.3
2018-06-02T13:46:57.497Z,22.2
2018-06-02T13:47:57.538Z,22
2018-06-02T13:48:57.617Z,21.9
2018-06-02T13:49:57.649Z,22
2018-06-02T13:50:57.975Z,22.1
2018-06-02T13:51:57.930Z,22.1
2018-06-02T13:52:57.821Z,22.1
2018-06-02T13:53:57.720Z,22.3
2018-06-02T13:54:57.858Z,22.3
2018-06-02T13:55:58.148Z,22.3
2018-06-02T13:56:58.029Z,22.2
2018-06-02T13:57:57.913Z,22.3
2018-06-02T13:58:57.800Z,22.3
2018-06-02T13:59:57.716Z,22.3
2018-06-02T14:00:57.595Z,22.3
2018-06-02T14:01:57.493Z,22.4
2018-06-02T14:02:57.399Z,22.4
2018-06-02T14:03:57.331Z,22.4
2018-06-02T14:04:57.219Z,22.4
2018-06-02T14:06:00.551Z,22.5
2018-06-02T14:07:00.434Z,22.5
2018-06-02T14:08:00.336Z,22.6
